FYWH/WDH METAR and TAF weather

Enter ICAO airport designator
Station Type Date Time Source
FYWH METAR 2020/04/03 15:00 UTC NOAA

FYWH 031500Z 17004KT 110V230 9999 FEW45CB SCT050 25/06 Q1020 BECMG -TSRA


Station Type Date Time Source
FYWH Decoded METAR 2020/04/03 15:00 UTC NOAA

J. G. Strijdom, Namibia (FYWH) 22-29S 017-28E 1700M
Apr 03, 2020 - 11:00 AM EDT / 2020.04.03 1500 UTC
Wind: from the S (170 degrees) at 5 MPH (4 KT) (direction variable):0
Visibility: greater than 7 mile(s):0
Sky conditions: partly cloudy
Weather: Cumulonimbus clouds observed
Temperature: 77 F (25 C)
Dew Point: 42 F (6 C)
Relative Humidity: 29%
Pressure (altimeter): 30.12 in. Hg (1020 hPa)
ob: FYWH 031500Z 17004KT 110V230 9999 FEW45CB SCT050 25/06 Q1020 BECMG -TSRA
cycle: 15

Station Type Date Time Source
FYWH TAF 2020/04/03 12:15 UTC NOAA

TAF FYWH 031000Z 0312/0412 16004KT 9999 SCT050
BECMG 0312/0314 FEW040TCU SCT045 PROB30
TEMPO 0316/0320 30004KT TSRA FEW035CB
BECMG 0322/0400 05004KT NSC
BECMG 0401/0403 34004KT

Example: see airport list